Terminal Aerodrome Forecast
Issued by NWS Indianapolis, IN

Home | Current Version | Previous Version | Text Only | Print | Product List | Glossary On
Versions: 1 2 3 4 5 6 7 8 9 10 11 12 13 14 15 16 17 18 19 20 21 22 23 24 25 26 27
156
FTUS43 KIND 191722
TAFIND
TAF
KIND 191722Z 1918/2024 23006KT P6SM SCT015 SCT250
     FM200400 16004KT P6SM SCT015
     FM200600 VRB03KT 1SM BR SCT008
     FM200800 VRB03KT 1/2SM FG SCT008
     FM200900 VRB03KT 3/4SM BR SCT008
     FM201100 VRB03KT 3/4SM BR BKN008
     FM201200 VRB03KT P6SM BKN008
     FM201800 15007KT P6SM SCT035
     FM202000 15008KT P6SM SCT150=

USA.gov is the U.S. government's official web portal to all federal, state and local government web resources and services.